Lubbock Preston Smith International

Airport
ICAO code: 
KLBB
Summary
ICAO Region: 
NAM
Territory: 
Location: 
Lubbock, Texas,
Coordinates: 
Aerial View: 
33° 39' 23.625" N, 101° 49' 21.368" W
Metar
Observation
KLBB 040753Z 34009KT 10SM CLR 06/M01 A3007 RMK AO2 SLP150 T00611011
Station
Lubbock, Lubbock International Airport
Date/Time
2021-12-04 07:53:00
Wind direction
340°
Wind speed
09 kts
Lowest cloud amount
n/a
Temperature
6.1°C
Dew point
-1.1°C
Humidity
59%
Weather condition
n/a

Description

Lubbock Preston Smith International Airport is an airport located just north of Lubbock, Texas. Originally known as Lubbock International Airport

Climatology

Hot, semi-arid/Steppe climate (Köppen climate classification BSh) - hot, sometimes extremely hot summers and mild to warm winters, with low annual precipitation.

Runways

Designator Length Width Surface Rops
17L/35R 881 23 ASP Yes/Yes
8/26 2439 46 CON Yes/Yes
17R/35L 3505 46 CON Yes/Yes
Airport map: 
Aerial View: 

Accidents and Serious Incidents at or in the vicinity of KLBB

SKYbrary Partners:

Safety knowledge contributed by: